sensor_id;sensor_type;location;lat;lon;timestamp;P1;durP1;ratioP1;P2;durP2;ratioP2
54983;SDS011;40884;53.562;9.940;2022-08-27T00:00:19;15.70;;;7.50;;
54983;SDS011;40884;53.562;9.940;2022-08-27T00:01:21;15.77;;;7.47;;
54983;SDS011;40884;53.562;9.940;2022-08-27T00:02:21;11.43;;;6.77;;
54983;SDS011;40884;53.562;9.940;2022-08-27T00:03:21;15.17;;;6.77;;
54983;SDS011;40884;53.562;9.940;2022-08-27T00:04:21;14.07;;;6.47;;
54983;SDS011;40884;53.562;9.940;2022-08-27T00:05:22;11.30;;;6.30;;
54983;SDS011;40884;53.562;9.940;2022-08-27T00:06:23;16.97;;;7.17;;
54983;SDS011;40884;53.562;9.940;2022-08-27T00:07:23;16.03;;;6.87;;
54983;SDS011;40884;53.562;9.940;2022-08-27T00:08:23;12.23;;;6.93;;
54983;SDS011;40884;53.562;9.940;2022-08-27T00:09:23;11.83;;;6.57;;
54983;SDS011;40884;53.562;9.940;2022-08-27T00:10:24;12.93;;;6.40;;
54983;SDS011;40884;53.562;9.940;2022-08-27T00:11:24;10.73;;;6.20;;
54983;SDS011;40884;53.562;9.940;2022-08-27T00:12:25;13.47;;;7.07;;
54983;SDS011;40884;53.562;9.940;2022-08-27T00:13:25;12.30;;;6.77;;
54983;SDS011;40884;53.562;9.940;2022-08-27T00:14:25;13.07;;;6.40;;
54983;SDS011;40884;53.562;9.940;2022-08-27T00:15:26;13.83;;;6.37;;
54983;SDS011;40884;53.562;9.940;2022-08-27T00:16:26;14.73;;;6.60;;
54983;SDS011;40884;53.562;9.940;2022-08-27T00:17:26;16.07;;;6.73;;
54983;SDS011;40884;53.562;9.940;2022-08-27T00:18:26;15.20;;;6.60;;
54983;SDS011;40884;53.562;9.940;2022-08-27T00:19:26;14.07;;;6.90;;
54983;SDS011;40884;53.562;9.940;2022-08-27T00:20:26;12.73;;;7.10;;
54983;SDS011;40884;53.562;9.940;2022-08-27T00:21:27;11.27;;;6.40;;
54983;SDS011;40884;53.562;9.940;2022-08-27T00:22:27;14.03;;;5.90;;
54983;SDS011;40884;53.562;9.940;2022-08-27T00:23:27;15.37;;;6.70;;
54983;SDS011;40884;53.562;9.940;2022-08-27T00:24:27;15.37;;;6.30;;
54983;SDS011;40884;53.562;9.940;2022-08-27T00:25:27;13.70;;;6.40;;
54983;SDS011;40884;53.562;9.940;2022-08-27T00:26:28;11.23;;;6.17;;
54983;SDS011;40884;53.562;9.940;2022-08-27T00:27:28;16.10;;;6.67;;
54983;SDS011;40884;53.562;9.940;2022-08-27T00:28:28;12.90;;;6.27;;
54983;SDS011;40884;53.562;9.940;2022-08-27T00:29:29;12.30;;;6.27;;
54983;SDS011;40884;53.562;9.940;2022-08-27T00:30:29;11.27;;;6.60;;
54983;SDS011;40884;53.562;9.940;2022-08-27T00:31:29;13.77;;;6.40;;
54983;SDS011;40884;53.562;9.940;2022-08-27T00:32:29;12.27;;;5.60;;
54983;SDS011;40884;53.562;9.940;2022-08-27T00:33:30;12.13;;;6.17;;
54983;SDS011;40884;53.562;9.940;2022-08-27T00:34:30;13.37;;;6.53;;
54983;SDS011;40884;53.562;9.940;2022-08-27T00:35:30;12.27;;;6.37;;
54983;SDS011;40884;53.562;9.940;2022-08-27T00:36:30;11.87;;;6.23;;
54983;SDS011;40884;53.562;9.940;2022-08-27T00:37:30;13.33;;;6.33;;
54983;SDS011;40884;53.562;9.940;2022-08-27T00:38:31;13.97;;;6.40;;
54983;SDS011;40884;53.562;9.940;2022-08-27T00:39:32;16.23;;;6.70;;
54983;SDS011;40884;53.562;9.940;2022-08-27T00:40:32;13.00;;;6.47;;
54983;SDS011;40884;53.562;9.940;2022-08-27T00:41:32;14.73;;;6.10;;
54983;SDS011;40884;53.562;9.940;2022-08-27T00:42:32;15.43;;;6.70;;
54983;SDS011;40884;53.562;9.940;2022-08-27T00:43:41;17.07;;;6.97;;
54983;SDS011;40884;53.562;9.940;2022-08-27T00:44:42;14.37;;;6.90;;
54983;SDS011;40884;53.562;9.940;2022-08-27T00:45:42;19.23;;;7.10;;
54983;SDS011;40884;53.562;9.940;2022-08-27T00:46:45;15.57;;;7.60;;
54983;SDS011;40884;53.562;9.940;2022-08-27T00:47:47;14.67;;;7.50;;
54983;SDS011;40884;53.562;9.940;2022-08-27T00:48:48;15.47;;;7.87;;
54983;SDS011;40884;53.562;9.940;2022-08-27T00:50:10;12.83;;;7.10;;
54983;SDS011;40884;53.562;9.940;2022-08-27T00:51:10;13.73;;;6.67;;
54983;SDS011;40884;53.562;9.940;2022-08-27T00:52:16;15.10;;;6.77;;
54983;SDS011;40884;53.562;9.940;2022-08-27T00:53:22;14.60;;;7.37;;
54983;SDS011;40884;53.562;9.940;2022-08-27T00:54:23;16.30;;;8.57;;
54983;SDS011;40884;53.562;9.940;2022-08-27T00:55:25;17.47;;;7.87;;
54983;SDS011;40884;53.562;9.940;2022-08-27T00:56:27;11.70;;;6.97;;
54983;SDS011;40884;53.562;9.940;2022-08-27T00:57:28;16.10;;;7.60;;
54983;SDS011;40884;53.562;9.940;2022-08-27T00:59:28;13.57;;;7.23;;
54983;SDS011;40884;53.562;9.940;2022-08-27T01:00:28;16.60;;;7.90;;
54983;SDS011;40884;53.562;9.940;2022-08-27T01:01:30;19.07;;;7.90;;
54983;SDS011;40884;53.562;9.940;2022-08-27T01:02:31;17.70;;;9.13;;
54983;SDS011;40884;53.562;9.940;2022-08-27T01:03:31;14.50;;;8.33;;
54983;SDS011;40884;53.562;9.940;2022-08-27T01:04:32;11.23;;;7.27;;
54983;SDS011;40884;53.562;9.940;2022-08-27T01:05:33;17.73;;;9.07;;
54983;SDS011;40884;53.562;9.940;2022-08-27T01:06:34;14.33;;;8.43;;
54983;SDS011;40884;53.562;9.940;2022-08-27T01:07:37;16.03;;;8.23;;
54983;SDS011;40884;53.562;9.940;2022-08-27T01:08:38;17.53;;;8.67;;
54983;SDS011;40884;53.562;9.940;2022-08-27T01:09:40;15.13;;;7.67;;
54983;SDS011;40884;53.562;9.940;2022-08-27T01:10:40;12.43;;;7.50;;
54983;SDS011;40884;53.562;9.940;2022-08-27T01:11:41;19.07;;;9.60;;
54983;SDS011;40884;53.562;9.940;2022-08-27T01:12:41;14.43;;;8.00;;
54983;SDS011;40884;53.562;9.940;2022-08-27T01:13:41;13.13;;;8.30;;
54983;SDS011;40884;53.562;9.940;2022-08-27T01:14:43;17.63;;;7.90;;
54983;SDS011;40884;53.562;9.940;2022-08-27T01:15:43;16.40;;;8.10;;
54983;SDS011;40884;53.562;9.940;2022-08-27T01:16:45;14.27;;;7.83;;
54983;SDS011;40884;53.562;9.940;2022-08-27T01:17:46;17.10;;;9.00;;
54983;SDS011;40884;53.562;9.940;2022-08-27T01:18:47;15.63;;;9.30;;
54983;SDS011;40884;53.562;9.940;2022-08-27T01:19:49;17.30;;;8.13;;
54983;SDS011;40884;53.562;9.940;2022-08-27T01:20:55;14.27;;;8.83;;
54983;SDS011;40884;53.562;9.940;2022-08-27T01:21:59;18.27;;;9.17;;
54983;SDS011;40884;53.562;9.940;2022-08-27T01:23:03;13.27;;;8.33;;
54983;SDS011;40884;53.562;9.940;2022-08-27T01:24:25;14.07;;;8.50;;
54983;SDS011;40884;53.562;9.940;2022-08-27T01:25:27;15.50;;;8.77;;
54983;SDS011;40884;53.562;9.940;2022-08-27T01:26:28;16.33;;;8.30;;
54983;SDS011;40884;53.562;9.940;2022-08-27T01:27:28;14.73;;;8.70;;
54983;SDS011;40884;53.562;9.940;2022-08-27T01:28:29;16.50;;;9.83;;
54983;SDS011;40884;53.562;9.940;2022-08-27T01:29:29;16.60;;;9.30;;
54983;SDS011;40884;53.562;9.940;2022-08-27T01:30:30;19.90;;;10.27;;
54983;SDS011;40884;53.562;9.940;2022-08-27T01:31:30;14.67;;;9.30;;
54983;SDS011;40884;53.562;9.940;2022-08-27T01:32:31;14.87;;;9.60;;
54983;SDS011;40884;53.562;9.940;2022-08-27T01:33:32;17.90;;;8.87;;
54983;SDS011;40884;53.562;9.940;2022-08-27T01:34:32;18.53;;;10.33;;
54983;SDS011;40884;53.562;9.940;2022-08-27T01:35:33;16.57;;;9.60;;
54983;SDS011;40884;53.562;9.940;2022-08-27T01:36:33;18.13;;;10.07;;
54983;SDS011;40884;53.562;9.940;2022-08-27T01:37:33;18.60;;;9.20;;
54983;SDS011;40884;53.562;9.940;2022-08-27T01:38:34;14.00;;;8.63;;
54983;SDS011;40884;53.562;9.940;2022-08-27T01:39:34;16.67;;;9.73;;
54983;SDS011;40884;53.562;9.940;2022-08-27T01:40:35;15.03;;;10.00;;
54983;SDS011;40884;53.562;9.940;2022-08-27T01:41:35;18.27;;;10.47;;
54983;SDS011;40884;53.562;9.940;2022-08-27T01:42:37;16.23;;;9.23;;
54983;SDS011;40884;53.562;9.940;2022-08-27T01:43:38;17.00;;;9.97;;
54983;SDS011;40884;53.562;9.940;2022-08-27T01:45:46;17.70;;;9.77;;
54983;SDS011;40884;53.562;9.940;2022-08-27T01:46:46;18.87;;;10.37;;
54983;SDS011;40884;53.562;9.940;2022-08-27T01:47:46;15.30;;;8.40;;
54983;SDS011;40884;53.562;9.940;2022-08-27T01:48:46;15.33;;;9.50;;
54983;SDS011;40884;53.562;9.940;2022-08-27T01:49:47;15.37;;;9.63;;
54983;SDS011;40884;53.562;9.940;2022-08-27T01:50:47;19.83;;;9.97;;
54983;SDS011;40884;53.562;9.940;2022-08-27T01:51:47;18.97;;;9.40;;
54983;SDS011;40884;53.562;9.940;2022-08-27T01:52:47;19.47;;;9.60;;
54983;SDS011;40884;53.562;9.940;2022-08-27T01:53:48;20.97;;;11.10;;
54983;SDS011;40884;53.562;9.940;2022-08-27T01:54:49;16.97;;;9.80;;
54983;SDS011;40884;53.562;9.940;2022-08-27T01:55:50;21.33;;;10.83;;
54983;SDS011;40884;53.562;9.940;2022-08-27T01:56:50;21.50;;;10.23;;
54983;SDS011;40884;53.562;9.940;2022-08-27T01:57:51;17.80;;;9.90;;
54983;SDS011;40884;53.562;9.940;2022-08-27T01:58:51;19.20;;;10.87;;
54983;SDS011;40884;53.562;9.940;2022-08-27T01:59:51;19.03;;;9.67;;
54983;SDS011;40884;53.562;9.940;2022-08-27T02:00:53;19.63;;;10.63;;
54983;SDS011;40884;53.562;9.940;2022-08-27T02:01:54;20.17;;;11.33;;
54983;SDS011;40884;53.562;9.940;2022-08-27T02:02:55;21.00;;;11.13;;
54983;SDS011;40884;53.562;9.940;2022-08-27T02:03:55;18.47;;;10.23;;
54983;SDS011;40884;53.562;9.940;2022-08-27T02:04:55;21.93;;;11.13;;
54983;SDS011;40884;53.562;9.940;2022-08-27T02:05:55;18.47;;;11.30;;
54983;SDS011;40884;53.562;9.940;2022-08-27T02:06:56;19.50;;;10.10;;
54983;SDS011;40884;53.562;9.940;2022-08-27T02:07:57;18.60;;;9.47;;
54983;SDS011;40884;53.562;9.940;2022-08-27T02:08:57;18.13;;;10.40;;
54983;SDS011;40884;53.562;9.940;2022-08-27T02:09:57;19.70;;;10.27;;
54983;SDS011;40884;53.562;9.940;2022-08-27T02:10:57;18.80;;;9.60;;
54983;SDS011;40884;53.562;9.940;2022-08-27T02:11:58;17.33;;;10.33;;
54983;SDS011;40884;53.562;9.940;2022-08-27T02:12:58;18.90;;;10.60;;
54983;SDS011;40884;53.562;9.940;2022-08-27T02:13:58;18.10;;;10.10;;
54983;SDS011;40884;53.562;9.940;2022-08-27T02:14:58;23.60;;;10.30;;
54983;SDS011;40884;53.562;9.940;2022-08-27T02:15:58;18.80;;;9.77;;
54983;SDS011;40884;53.562;9.940;2022-08-27T02:16:59;14.47;;;8.83;;
54983;SDS011;40884;53.562;9.940;2022-08-27T02:17:59;16.10;;;9.80;;
54983;SDS011;40884;53.562;9.940;2022-08-27T02:19:00;18.87;;;9.90;;
54983;SDS011;40884;53.562;9.940;2022-08-27T02:20:00;14.77;;;9.53;;
54983;SDS011;40884;53.562;9.940;2022-08-27T02:21:00;15.43;;;9.30;;
54983;SDS011;40884;53.562;9.940;2022-08-27T02:22:00;17.30;;;9.33;;
54983;SDS011;40884;53.562;9.940;2022-08-27T02:23:01;12.77;;;8.87;;
54983;SDS011;40884;53.562;9.940;2022-08-27T02:24:01;17.10;;;9.60;;
54983;SDS011;40884;53.562;9.940;2022-08-27T02:25:01;20.67;;;10.97;;
54983;SDS011;40884;53.562;9.940;2022-08-27T02:26:02;14.73;;;8.80;;
54983;SDS011;40884;53.562;9.940;2022-08-27T02:27:02;17.07;;;8.90;;
54983;SDS011;40884;53.562;9.940;2022-08-27T02:28:02;19.77;;;10.03;;
54983;SDS011;40884;53.562;9.940;2022-08-27T02:29:03;17.97;;;9.80;;
54983;SDS011;40884;53.562;9.940;2022-08-27T02:30:04;14.70;;;9.43;;
54983;SDS011;40884;53.562;9.940;2022-08-27T02:31:04;15.70;;;9.80;;
54983;SDS011;40884;53.562;9.940;2022-08-27T02:32:06;15.80;;;10.10;;
54983;SDS011;40884;53.562;9.940;2022-08-27T02:33:06;17.47;;;9.90;;
54983;SDS011;40884;53.562;9.940;2022-08-27T02:34:07;17.60;;;9.70;;
54983;SDS011;40884;53.562;9.940;2022-08-27T02:35:07;19.13;;;9.70;;
54983;SDS011;40884;53.562;9.940;2022-08-27T02:36:07;15.53;;;8.93;;
54983;SDS011;40884;53.562;9.940;2022-08-27T02:37:07;20.03;;;9.93;;
54983;SDS011;40884;53.562;9.940;2022-08-27T02:38:07;20.03;;;10.37;;
54983;SDS011;40884;53.562;9.940;2022-08-27T02:39:08;15.97;;;9.30;;
54983;SDS011;40884;53.562;9.940;2022-08-27T02:40:09;19.47;;;10.17;;
54983;SDS011;40884;53.562;9.940;2022-08-27T02:41:09;19.10;;;9.90;;
54983;SDS011;40884;53.562;9.940;2022-08-27T02:42:09;20.43;;;10.87;;
54983;SDS011;40884;53.562;9.940;2022-08-27T02:43:09;20.77;;;10.30;;
54983;SDS011;40884;53.562;9.940;2022-08-27T02:44:09;18.27;;;9.73;;
54983;SDS011;40884;53.562;9.940;2022-08-27T02:45:10;19.47;;;10.27;;
54983;SDS011;40884;53.562;9.940;2022-08-27T02:46:10;18.13;;;9.23;;
54983;SDS011;40884;53.562;9.940;2022-08-27T02:47:10;18.53;;;10.47;;
54983;SDS011;40884;53.562;9.940;2022-08-27T02:48:10;17.40;;;10.43;;
54983;SDS011;40884;53.562;9.940;2022-08-27T02:49:11;19.17;;;9.63;;
54983;SDS011;40884;53.562;9.940;2022-08-27T02:50:11;16.13;;;9.83;;
54983;SDS011;40884;53.562;9.940;2022-08-27T02:51:11;23.57;;;11.30;;
54983;SDS011;40884;53.562;9.940;2022-08-27T02:52:12;19.33;;;10.43;;
54983;SDS011;40884;53.562;9.940;2022-08-27T02:53:12;20.07;;;10.90;;
54983;SDS011;40884;53.562;9.940;2022-08-27T02:54:12;17.93;;;9.93;;
54983;SDS011;40884;53.562;9.940;2022-08-27T02:55:13;20.87;;;10.47;;
54983;SDS011;40884;53.562;9.940;2022-08-27T02:56:13;21.67;;;10.20;;
54983;SDS011;40884;53.562;9.940;2022-08-27T02:57:13;17.40;;;9.93;;
54983;SDS011;40884;53.562;9.940;2022-08-27T02:58:13;21.47;;;10.37;;
54983;SDS011;40884;53.562;9.940;2022-08-27T02:59:13;18.23;;;10.80;;
54983;SDS011;40884;53.562;9.940;2022-08-27T03:00:15;19.10;;;10.60;;
54983;SDS011;40884;53.562;9.940;2022-08-27T03:01:15;20.83;;;11.30;;
54983;SDS011;40884;53.562;9.940;2022-08-27T03:02:16;17.70;;;10.30;;
54983;SDS011;40884;53.562;9.940;2022-08-27T03:03:16;19.93;;;10.33;;
54983;SDS011;40884;53.562;9.940;2022-08-27T03:04:16;13.80;;;9.17;;
54983;SDS011;40884;53.562;9.940;2022-08-27T03:05:17;18.30;;;9.93;;
54983;SDS011;40884;53.562;9.940;2022-08-27T03:06:17;19.47;;;10.13;;
54983;SDS011;40884;53.562;9.940;2022-08-27T03:07:17;17.30;;;10.63;;
54983;SDS011;40884;53.562;9.940;2022-08-27T03:08:17;18.80;;;10.90;;
54983;SDS011;40884;53.562;9.940;2022-08-27T03:09:17;18.90;;;10.33;;
54983;SDS011;40884;53.562;9.940;2022-08-27T03:10:17;21.70;;;10.70;;
54983;SDS011;40884;53.562;9.940;2022-08-27T03:11:18;17.00;;;9.93;;
54983;SDS011;40884;53.562;9.940;2022-08-27T03:12:18;16.13;;;9.77;;
54983;SDS011;40884;53.562;9.940;2022-08-27T03:13:18;20.47;;;10.00;;
54983;SDS011;40884;53.562;9.940;2022-08-27T03:14:18;18.33;;;10.17;;
54983;SDS011;40884;53.562;9.940;2022-08-27T03:15:19;16.57;;;9.50;;
54983;SDS011;40884;53.562;9.940;2022-08-27T03:16:19;17.30;;;9.37;;
54983;SDS011;40884;53.562;9.940;2022-08-27T03:17:19;20.93;;;10.43;;
54983;SDS011;40884;53.562;9.940;2022-08-27T03:18:19;15.93;;;9.80;;
54983;SDS011;40884;53.562;9.940;2022-08-27T03:19:20;16.90;;;10.03;;
54983;SDS011;40884;53.562;9.940;2022-08-27T03:20:20;18.33;;;10.10;;
54983;SDS011;40884;53.562;9.940;2022-08-27T03:21:25;17.93;;;10.73;;
54983;SDS011;40884;53.562;9.940;2022-08-27T03:22:25;18.10;;;10.10;;
54983;SDS011;40884;53.562;9.940;2022-08-27T03:23:26;19.23;;;10.03;;
54983;SDS011;40884;53.562;9.940;2022-08-27T03:24:26;19.33;;;10.97;;
54983;SDS011;40884;53.562;9.940;2022-08-27T03:25:26;20.03;;;10.80;;
54983;SDS011;40884;53.562;9.940;2022-08-27T03:26:27;20.00;;;10.77;;
54983;SDS011;40884;53.562;9.940;2022-08-27T03:27:28;17.70;;;11.10;;
54983;SDS011;40884;53.562;9.940;2022-08-27T03:28:29;18.13;;;10.27;;
54983;SDS011;40884;53.562;9.940;2022-08-27T03:29:30;17.50;;;10.10;;
54983;SDS011;40884;53.562;9.940;2022-08-27T03:30:30;21.60;;;11.03;;
54983;SDS011;40884;53.562;9.940;2022-08-27T03:31:30;20.03;;;10.90;;
54983;SDS011;40884;53.562;9.940;2022-08-27T03:32:30;17.70;;;10.13;;
54983;SDS011;40884;53.562;9.940;2022-08-27T03:33:32;19.97;;;10.80;;
54983;SDS011;40884;53.562;9.940;2022-08-27T03:34:33;19.20;;;10.97;;
54983;SDS011;40884;53.562;9.940;2022-08-27T03:35:33;17.77;;;11.13;;
54983;SDS011;40884;53.562;9.940;2022-08-27T03:36:33;19.17;;;11.30;;
54983;SDS011;40884;53.562;9.940;2022-08-27T03:37:33;22.77;;;12.10;;
54983;SDS011;40884;53.562;9.940;2022-08-27T03:38:33;19.70;;;10.93;;
54983;SDS011;40884;53.562;9.940;2022-08-27T03:39:34;20.43;;;11.37;;
54983;SDS011;40884;53.562;9.940;2022-08-27T03:40:34;19.10;;;10.73;;
54983;SDS011;40884;53.562;9.940;2022-08-27T03:41:34;20.03;;;11.20;;
54983;SDS011;40884;53.562;9.940;2022-08-27T03:42:35;16.47;;;10.83;;
54983;SDS011;40884;53.562;9.940;2022-08-27T03:43:35;19.40;;;10.90;;
54983;SDS011;40884;53.562;9.940;2022-08-27T03:44:35;18.27;;;11.60;;
54983;SDS011;40884;53.562;9.940;2022-08-27T03:45:35;20.77;;;11.80;;
54983;SDS011;40884;53.562;9.940;2022-08-27T03:46:35;22.83;;;11.70;;
54983;SDS011;40884;53.562;9.940;2022-08-27T03:47:36;16.27;;;9.77;;
54983;SDS011;40884;53.562;9.940;2022-08-27T03:48:36;16.80;;;11.47;;
54983;SDS011;40884;53.562;9.940;2022-08-27T03:49:36;15.90;;;10.97;;
54983;SDS011;40884;53.562;9.940;2022-08-27T03:50:37;17.73;;;11.33;;
54983;SDS011;40884;53.562;9.940;2022-08-27T03:51:38;16.40;;;10.30;;
54983;SDS011;40884;53.562;9.940;2022-08-27T03:52:38;18.77;;;11.40;;
54983;SDS011;40884;53.562;9.940;2022-08-27T03:53:38;17.83;;;11.07;;
54983;SDS011;40884;53.562;9.940;2022-08-27T03:54:39;17.30;;;11.27;;
54983;SDS011;40884;53.562;9.940;2022-08-27T03:55:40;22.30;;;12.33;;
54983;SDS011;40884;53.562;9.940;2022-08-27T03:56:40;15.63;;;9.67;;
54983;SDS011;40884;53.562;9.940;2022-08-27T03:57:40;16.93;;;11.40;;
54983;SDS011;40884;53.562;9.940;2022-08-27T03:58:40;22.07;;;11.83;;
54983;SDS011;40884;53.562;9.940;2022-08-27T03:59:40;22.13;;;11.93;;
54983;SDS011;40884;53.562;9.940;2022-08-27T04:00:40;20.00;;;11.10;;
54983;SDS011;40884;53.562;9.940;2022-08-27T04:01:41;17.73;;;10.73;;
54983;SDS011;40884;53.562;9.940;2022-08-27T04:02:41;20.70;;;11.60;;
54983;SDS011;40884;53.562;9.940;2022-08-27T04:03:42;17.57;;;11.43;;
54983;SDS011;40884;53.562;9.940;2022-08-27T04:04:42;16.93;;;11.37;;
54983;SDS011;40884;53.562;9.940;2022-08-27T04:05:42;14.53;;;10.57;;
54983;SDS011;40884;53.562;9.940;2022-08-27T04:06:42;15.90;;;11.37;;
54983;SDS011;40884;53.562;9.940;2022-08-27T04:07:42;16.80;;;11.33;;
54983;SDS011;40884;53.562;9.940;2022-08-27T04:08:43;16.90;;;12.07;;
54983;SDS011;40884;53.562;9.940;2022-08-27T04:09:43;19.10;;;11.67;;
54983;SDS011;40884;53.562;9.940;2022-08-27T04:10:43;17.60;;;11.83;;
54983;SDS011;40884;53.562;9.940;2022-08-27T04:11:43;17.53;;;12.00;;
54983;SDS011;40884;53.562;9.940;2022-08-27T04:12:43;17.87;;;11.80;;
54983;SDS011;40884;53.562;9.940;2022-08-27T04:13:44;20.10;;;11.77;;
54983;SDS011;40884;53.562;9.940;2022-08-27T04:14:44;19.83;;;11.63;;
54983;SDS011;40884;53.562;9.940;2022-08-27T04:15:45;18.37;;;12.30;;
54983;SDS011;40884;53.562;9.940;2022-08-27T04:16:45;16.70;;;11.10;;
54983;SDS011;40884;53.562;9.940;2022-08-27T04:17:45;18.37;;;12.33;;
54983;SDS011;40884;53.562;9.940;2022-08-27T04:18:45;18.20;;;11.20;;
54983;SDS011;40884;53.562;9.940;2022-08-27T04:19:45;17.40;;;11.37;;
54983;SDS011;40884;53.562;9.940;2022-08-27T04:20:46;19.47;;;11.40;;
54983;SDS011;40884;53.562;9.940;2022-08-27T04:21:47;14.90;;;10.47;;
54983;SDS011;40884;53.562;9.940;2022-08-27T04:22:47;17.83;;;11.93;;
54983;SDS011;40884;53.562;9.940;2022-08-27T04:23:47;14.60;;;10.93;;
54983;SDS011;40884;53.562;9.940;2022-08-27T04:24:48;17.17;;;11.50;;
54983;SDS011;40884;53.562;9.940;2022-08-27T04:25:48;18.20;;;10.80;;
54983;SDS011;40884;53.562;9.940;2022-08-27T04:26:48;14.90;;;9.60;;
54983;SDS011;40884;53.562;9.940;2022-08-27T04:27:48;18.53;;;11.10;;
54983;SDS011;40884;53.562;9.940;2022-08-27T04:28:48;20.93;;;10.87;;
54983;SDS011;40884;53.562;9.940;2022-08-27T04:29:49;16.63;;;11.30;;
54983;SDS011;40884;53.562;9.940;2022-08-27T04:30:49;15.67;;;10.60;;
54983;SDS011;40884;53.562;9.940;2022-08-27T04:31:49;18.00;;;10.73;;
54983;SDS011;40884;53.562;9.940;2022-08-27T04:32:49;15.17;;;10.60;;
54983;SDS011;40884;53.562;9.940;2022-08-27T04:33:49;14.10;;;9.80;;
54983;SDS011;40884;53.562;9.940;2022-08-27T04:34:53;16.67;;;10.63;;
54983;SDS011;40884;53.562;9.940;2022-08-27T04:36:04;18.77;;;10.27;;
54983;SDS011;40884;53.562;9.940;2022-08-27T04:37:04;17.97;;;10.03;;
54983;SDS011;40884;53.562;9.940;2022-08-27T04:38:05;14.57;;;9.70;;
54983;SDS011;40884;53.562;9.940;2022-08-27T04:39:05;12.93;;;8.80;;
54983;SDS011;40884;53.562;9.940;2022-08-27T04:40:05;12.23;;;8.50;;
54983;SDS011;40884;53.562;9.940;2022-08-27T04:41:07;15.10;;;9.10;;
54983;SDS011;40884;53.562;9.940;2022-08-27T04:42:07;13.10;;;8.43;;
54983;SDS011;40884;53.562;9.940;2022-08-27T04:43:07;13.40;;;7.93;;
54983;SDS011;40884;53.562;9.940;2022-08-27T04:44:08;13.00;;;7.10;;
54983;SDS011;40884;53.562;9.940;2022-08-27T04:45:09;10.70;;;7.80;;
54983;SDS011;40884;53.562;9.940;2022-08-27T04:46:09;10.70;;;7.60;;
54983;SDS011;40884;53.562;9.940;2022-08-27T04:47:10;10.13;;;6.83;;
54983;SDS011;40884;53.562;9.940;2022-08-27T04:48:11;13.87;;;7.07;;
54983;SDS011;40884;53.562;9.940;2022-08-27T04:49:13;10.27;;;6.93;;
54983;SDS011;40884;53.562;9.940;2022-08-27T04:50:13;10.10;;;7.10;;
54983;SDS011;40884;53.562;9.940;2022-08-27T04:51:13;12.77;;;7.20;;
54983;SDS011;40884;53.562;9.940;2022-08-27T04:52:14;12.03;;;7.40;;
54983;SDS011;40884;53.562;9.940;2022-08-27T04:53:14;11.10;;;7.40;;
54983;SDS011;40884;53.562;9.940;2022-08-27T04:54:15;10.50;;;6.93;;
54983;SDS011;40884;53.562;9.940;2022-08-27T04:55:15;12.57;;;6.93;;
54983;SDS011;40884;53.562;9.940;2022-08-27T04:56:16;11.37;;;6.97;;
54983;SDS011;40884;53.562;9.940;2022-08-27T04:57:17;10.50;;;6.83;;
54983;SDS011;40884;53.562;9.940;2022-08-27T04:58:17;10.37;;;6.83;;
54983;SDS011;40884;53.562;9.940;2022-08-27T04:59:18;10.67;;;6.23;;
54983;SDS011;40884;53.562;9.940;2022-08-27T05:00:18;13.50;;;6.50;;
54983;SDS011;40884;53.562;9.940;2022-08-27T05:01:19;10.23;;;6.10;;
54983;SDS011;40884;53.562;9.940;2022-08-27T05:02:20;8.30;;;6.20;;
54983;SDS011;40884;53.562;9.940;2022-08-27T05:03:21;9.80;;;7.17;;
54983;SDS011;40884;53.562;9.940;2022-08-27T05:04:21;10.83;;;6.93;;
54983;SDS011;40884;53.562;9.940;2022-08-27T05:05:21;8.57;;;6.23;;
54983;SDS011;40884;53.562;9.940;2022-08-27T05:06:22;9.50;;;6.80;;
54983;SDS011;40884;53.562;9.940;2022-08-27T05:07:22;8.43;;;6.40;;
54983;SDS011;40884;53.562;9.940;2022-08-27T05:08:22;8.47;;;6.50;;
54983;SDS011;40884;53.562;9.940;2022-08-27T05:09:22;12.50;;;5.90;;
54983;SDS011;40884;53.562;9.940;2022-08-27T05:10:22;11.73;;;6.47;;
54983;SDS011;40884;53.562;9.940;2022-08-27T05:11:23;11.33;;;6.60;;
54983;SDS011;40884;53.562;9.940;2022-08-27T05:12:23;9.47;;;7.10;;
54983;SDS011;40884;53.562;9.940;2022-08-27T05:13:23;12.10;;;7.23;;
54983;SDS011;40884;53.562;9.940;2022-08-27T05:14:23;11.73;;;6.40;;
54983;SDS011;40884;53.562;9.940;2022-08-27T05:15:23;10.00;;;6.17;;
54983;SDS011;40884;53.562;9.940;2022-08-27T05:16:24;10.73;;;6.83;;
54983;SDS011;40884;53.562;9.940;2022-08-27T05:17:24;12.27;;;6.30;;
54983;SDS011;40884;53.562;9.940;2022-08-27T05:18:24;10.07;;;6.80;;
54983;SDS011;40884;53.562;9.940;2022-08-27T05:19:24;14.13;;;6.33;;
54983;SDS011;40884;53.562;9.940;2022-08-27T05:20:25;11.77;;;7.10;;
54983;SDS011;40884;53.562;9.940;2022-08-27T05:21:30;9.50;;;6.07;;
54983;SDS011;40884;53.562;9.940;2022-08-27T05:22:30;11.33;;;6.27;;
54983;SDS011;40884;53.562;9.940;2022-08-27T05:23:31;9.97;;;5.77;;
54983;SDS011;40884;53.562;9.940;2022-08-27T05:24:31;12.73;;;7.10;;
54983;SDS011;40884;53.562;9.940;2022-08-27T05:25:31;9.90;;;6.70;;
54983;SDS011;40884;53.562;9.940;2022-08-27T05:26:36;10.93;;;6.63;;
54983;SDS011;40884;53.562;9.940;2022-08-27T05:27:36;10.37;;;6.70;;
54983;SDS011;40884;53.562;9.940;2022-08-27T05:28:36;11.80;;;6.87;;
54983;SDS011;40884;53.562;9.940;2022-08-27T05:29:36;11.23;;;6.47;;
54983;SDS011;40884;53.562;9.940;2022-08-27T05:30:37;11.33;;;7.00;;
54983;SDS011;40884;53.562;9.940;2022-08-27T05:31:38;13.13;;;7.00;;
54983;SDS011;40884;53.562;9.940;2022-08-27T05:32:38;12.60;;;7.00;;
54983;SDS011;40884;53.562;9.940;2022-08-27T05:33:39;12.83;;;6.60;;
54983;SDS011;40884;53.562;9.940;2022-08-27T05:34:39;11.00;;;6.80;;
54983;SDS011;40884;53.562;9.940;2022-08-27T05:35:49;9.77;;;6.07;;
54983;SDS011;40884;53.562;9.940;2022-08-27T05:36:50;11.93;;;5.73;;
54983;SDS011;40884;53.562;9.940;2022-08-27T05:37:50;10.43;;;6.07;;
54983;SDS011;40884;53.562;9.940;2022-08-27T05:38:50;10.80;;;6.73;;
54983;SDS011;40884;53.562;9.940;2022-08-27T05:39:50;12.77;;;6.37;;
54983;SDS011;40884;53.562;9.940;2022-08-27T05:41:00;9.80;;;6.20;;
54983;SDS011;40884;53.562;9.940;2022-08-27T05:42:00;9.97;;;6.47;;
54983;SDS011;40884;53.562;9.940;2022-08-27T05:43:00;7.47;;;5.50;;
54983;SDS011;40884;53.562;9.940;2022-08-27T05:44:02;11.37;;;5.70;;
54983;SDS011;40884;53.562;9.940;2022-08-27T05:45:03;9.13;;;5.90;;
54983;SDS011;40884;53.562;9.940;2022-08-27T05:46:04;8.60;;;4.90;;
54983;SDS011;40884;53.562;9.940;2022-08-27T05:47:04;10.23;;;5.60;;
54983;SDS011;40884;53.562;9.940;2022-08-27T05:48:04;8.20;;;5.70;;
54983;SDS011;40884;53.562;9.940;2022-08-27T05:49:04;9.63;;;6.10;;
54983;SDS011;40884;53.562;9.940;2022-08-27T05:50:05;10.27;;;5.90;;
54983;SDS011;40884;53.562;9.940;2022-08-27T05:51:06;8.43;;;5.40;;
54983;SDS011;40884;53.562;9.940;2022-08-27T05:52:07;8.47;;;5.40;;
54983;SDS011;40884;53.562;9.940;2022-08-27T05:53:07;11.90;;;5.27;;
54983;SDS011;40884;53.562;9.940;2022-08-27T05:54:08;9.27;;;6.17;;
54983;SDS011;40884;53.562;9.940;2022-08-27T05:55:09;8.90;;;6.20;;
54983;SDS011;40884;53.562;9.940;2022-08-27T05:56:17;11.77;;;6.50;;
54983;SDS011;40884;53.562;9.940;2022-08-27T05:57:17;13.03;;;7.40;;
54983;SDS011;40884;53.562;9.940;2022-08-27T05:58:17;10.67;;;6.17;;
54983;SDS011;40884;53.562;9.940;2022-08-27T05:59:17;10.77;;;6.73;;
54983;SDS011;40884;53.562;9.940;2022-08-27T06:00:18;10.13;;;7.20;;
54983;SDS011;40884;53.562;9.940;2022-08-27T06:01:18;15.13;;;8.80;;